createdAt,value
2017-05-24T00:00:07.201Z,20
2017-05-24T00:00:47.835Z,20
2017-05-24T00:01:28.491Z,20
2017-05-24T00:02:09.043Z,20
2017-05-24T00:02:49.603Z,20
2017-05-24T00:03:30.164Z,20
2017-05-24T00:04:10.797Z,20
2017-05-24T00:04:51.394Z,20
2017-05-24T00:05:31.945Z,20
2017-05-24T00:06:12.525Z,20
2017-05-24T00:06:53.133Z,20
2017-05-24T00:07:33.700Z,20
2017-05-24T00:08:14.230Z,25
2017-05-24T00:08:54.819Z,30
2017-05-24T00:09:35.406Z,25
2017-05-24T00:10:16.074Z,30
2017-05-24T00:10:56.613Z,20
2017-05-24T00:11:37.158Z,20
2017-05-24T00:12:17.761Z,20
2017-05-24T00:12:58.393Z,20
2017-05-24T00:13:39.016Z,20
2017-05-24T00:14:19.618Z,20
2017-05-24T00:15:00.147Z,20
2017-05-24T00:15:40.718Z,20
2017-05-24T00:16:21.323Z,25
2017-05-24T00:17:01.918Z,30
2017-05-24T00:17:42.477Z,25
2017-05-24T00:18:23.028Z,30
2017-05-24T00:19:03.654Z,25
2017-05-24T00:19:44.176Z,30
2017-05-24T00:20:24.799Z,30
2017-05-24T00:21:05.382Z,25
2017-05-24T00:21:45.886Z,25
2017-05-24T00:22:26.436Z,30
2017-05-24T00:23:07.041Z,25
2017-05-24T00:23:47.594Z,30
2017-05-24T00:24:28.205Z,25
2017-05-24T00:25:08.788Z,25
2017-05-24T00:25:49.336Z,20
2017-05-24T00:26:29.886Z,20
2017-05-24T00:27:10.437Z,25
2017-05-24T00:27:51.013Z,30
2017-05-24T00:28:31.636Z,25
2017-05-24T00:29:12.190Z,30
2017-05-24T00:29:52.713Z,25
2017-05-24T00:30:33.245Z,30
2017-05-24T00:31:13.851Z,25
2017-05-24T00:31:54.395Z,30
2017-05-24T00:32:36.062Z,25
2017-05-24T00:33:16.656Z,25
2017-05-24T00:33:57.223Z,20
2017-05-24T00:34:39.729Z,20
2017-05-24T00:35:20.319Z,20
2017-05-24T00:36:00.847Z,25
2017-05-24T00:36:41.381Z,20
2017-05-24T00:37:21.998Z,20
2017-05-24T00:38:02.525Z,20
2017-05-24T00:38:43.151Z,20
2017-05-24T00:39:23.738Z,20
2017-05-24T00:40:04.335Z,25
2017-05-24T00:40:44.949Z,25
2017-05-24T00:41:25.494Z,20
2017-05-24T00:42:06.047Z,20
2017-05-24T00:42:46.632Z,20
2017-05-24T00:43:27.253Z,20
2017-05-24T00:44:07.919Z,20
2017-05-24T00:44:48.558Z,20
2017-05-24T00:45:29.116Z,20
2017-05-24T00:46:09.666Z,20
2017-05-24T00:46:50.219Z,20
2017-05-24T00:47:30.770Z,20
2017-05-24T00:48:11.325Z,20
2017-05-24T00:48:51.906Z,25
2017-05-24T00:49:32.460Z,20
2017-05-24T00:50:12.984Z,20
2017-05-24T00:50:53.559Z,20
2017-05-24T00:51:34.175Z,20
2017-05-24T00:52:14.762Z,30
2017-05-24T00:52:55.289Z,25
2017-05-24T00:53:35.907Z,30
2017-05-24T00:54:16.466Z,30
2017-05-24T00:54:57.072Z,40
2017-05-24T00:55:37.584Z,15
2017-05-24T00:56:18.133Z,20
2017-05-24T00:56:58.729Z,20
2017-05-24T00:57:39.326Z,20
2017-05-24T00:58:19.880Z,15
2017-05-24T00:59:00.439Z,30
2017-05-24T00:59:41.047Z,15
2017-05-24T01:00:21.593Z,30
2017-05-24T01:01:02.145Z,25
2017-05-24T01:01:42.704Z,30
2017-05-24T01:02:23.255Z,30
2017-05-24T01:03:03.795Z,25
2017-05-24T01:03:44.359Z,20
2017-05-24T01:04:25.002Z,25
2017-05-24T01:05:05.554Z,25
2017-05-24T01:05:46.209Z,20
2017-05-24T01:06:26.758Z,20
2017-05-24T01:07:07.293Z,20
2017-05-24T01:07:47.844Z,20
2017-05-24T01:08:28.415Z,20
2017-05-24T01:09:09.006Z,20
2017-05-24T01:09:49.507Z,15
2017-05-24T01:10:30.046Z,20
2017-05-24T01:11:10.621Z,25
2017-05-24T01:11:51.264Z,25
2017-05-24T01:12:31.809Z,20
2017-05-24T01:13:12.358Z,20
2017-05-24T01:13:52.973Z,20
2017-05-24T01:14:33.545Z,20
2017-05-24T01:15:14.050Z,20
2017-05-24T01:15:54.667Z,20
2017-05-24T01:16:35.280Z,25
2017-05-24T01:17:15.850Z,25
2017-05-24T01:17:56.388Z,25
2017-05-24T01:18:36.985Z,20
2017-05-24T01:19:17.570Z,20
2017-05-24T01:19:58.153Z,20
2017-05-24T01:20:38.696Z,20
2017-05-24T01:21:19.297Z,25
2017-05-24T01:21:59.867Z,20
2017-05-24T01:22:40.471Z,25
2017-05-24T01:23:21.003Z,20
2017-05-24T01:24:01.591Z,15
2017-05-24T01:24:42.168Z,35
2017-05-24T01:25:22.724Z,0
2017-05-24T01:26:03.280Z,20
2017-05-24T01:26:43.835Z,20
2017-05-24T01:27:24.487Z,25
2017-05-24T01:28:05.046Z,20
2017-05-24T01:28:45.689Z,20
2017-05-24T01:29:26.240Z,20
2017-05-24T01:30:06.791Z,20
2017-05-24T01:30:47.383Z,25
2017-05-24T01:31:28.044Z,20
2017-05-24T01:32:08.564Z,20
2017-05-24T01:32:49.198Z,20
2017-05-24T01:33:29.801Z,20
2017-05-24T01:34:10.342Z,25
2017-05-24T01:34:50.967Z,20
2017-05-24T01:35:31.570Z,25
2017-05-24T01:36:12.105Z,20
2017-05-24T01:36:52.625Z,20
2017-05-24T01:37:33.209Z,20
2017-05-24T01:38:13.767Z,20
2017-05-24T01:38:54.305Z,20
2017-05-24T01:39:34.913Z,20
2017-05-24T01:40:15.422Z,20
2017-05-24T01:40:56.006Z,20
2017-05-24T01:41:36.540Z,20
2017-05-24T01:42:17.111Z,20
2017-05-24T01:42:57.638Z,20
2017-05-24T01:43:38.258Z,20
2017-05-24T01:44:18.861Z,20
2017-05-24T01:44:59.435Z,20
2017-05-24T01:45:39.938Z,20
2017-05-24T01:46:20.560Z,20
2017-05-24T01:47:01.162Z,20
2017-05-24T01:47:41.741Z,20
2017-05-24T01:48:22.301Z,20
2017-05-24T01:49:02.896Z,15
2017-05-24T01:49:43.448Z,20
2017-05-24T01:50:36.084Z,20
2017-05-24T01:51:16.623Z,25
2017-05-24T01:51:58.251Z,20
2017-05-24T01:52:39.871Z,0
2017-05-24T01:53:21.455Z,20
2017-05-24T01:54:01.977Z,20
2017-05-24T01:54:49.549Z,20
2017-05-24T01:55:34.851Z,20
2017-05-24T01:56:15.407Z,20
2017-05-24T01:57:07.596Z,20
2017-05-24T01:57:58.846Z,15
2017-05-24T01:58:39.356Z,20
2017-05-24T01:59:25.520Z,20
2017-05-24T02:00:17.796Z,20
2017-05-24T02:01:05.128Z,20
2017-05-24T02:01:45.674Z,15
2017-05-24T02:02:33.020Z,30
2017-05-24T02:03:30.301Z,25
2017-05-24T02:04:10.881Z,30
2017-05-24T02:04:51.541Z,20
2017-05-24T02:05:32.192Z,20
2017-05-24T02:06:12.845Z,25
2017-05-24T02:06:53.370Z,30
2017-05-24T02:07:34.014Z,25
2017-05-24T02:08:14.562Z,25
2017-05-24T02:08:55.113Z,20
2017-05-24T02:09:35.662Z,15
2017-05-24T02:10:16.224Z,20
2017-05-24T02:10:56.761Z,20
2017-05-24T02:11:37.327Z,20
2017-05-24T02:12:17.869Z,20
2017-05-24T02:12:58.512Z,25
2017-05-24T02:13:45.982Z,20
2017-05-24T02:14:26.585Z,20
2017-05-24T02:15:07.108Z,20
2017-05-24T02:15:47.749Z,20
2017-05-24T02:16:28.330Z,20
2017-05-24T02:17:08.876Z,15
2017-05-24T02:17:49.508Z,20
2017-05-24T02:18:30.086Z,20
2017-05-24T02:19:10.616Z,20
2017-05-24T02:19:51.246Z,25
2017-05-24T02:20:31.901Z,15
2017-05-24T02:21:12.551Z,20
2017-05-24T02:21:53.114Z,25
2017-05-24T02:22:33.758Z,20
2017-05-24T02:23:14.427Z,20
2017-05-24T02:23:55.057Z,25
2017-05-24T02:24:35.652Z,20
2017-05-24T02:25:16.203Z,20
2017-05-24T02:25:56.800Z,20
2017-05-24T02:26:37.327Z,15
2017-05-24T02:27:17.883Z,20
2017-05-24T02:27:59.456Z,20
2017-05-24T02:28:44.668Z,20
2017-05-24T02:29:25.214Z,20
2017-05-24T02:30:10.501Z,20
2017-05-24T02:30:51.076Z,20
2017-05-24T02:31:42.644Z,15
2017-05-24T02:32:23.182Z,40
2017-05-24T02:33:03.765Z,0
2017-05-24T02:33:44.356Z,20
2017-05-24T02:34:30.590Z,20
2017-05-24T02:35:17.186Z,20
2017-05-24T02:35:57.830Z,20
2017-05-24T02:36:45.131Z,20
2017-05-24T02:37:26.710Z,20
2017-05-24T02:38:13.093Z,20
2017-05-24T03:02:52.942Z,15
2017-05-24T03:03:33.519Z,40
2017-05-24T03:04:14.101Z,15
2017-05-24T03:04:54.679Z,45
2017-05-24T03:05:35.298Z,15
2017-05-24T03:06:15.851Z,30
2017-05-24T03:06:56.524Z,20
2017-05-24T03:07:37.054Z,20
2017-05-24T03:08:17.683Z,45
2017-05-24T03:08:58.235Z,25
2017-05-24T03:09:38.819Z,20
2017-05-24T03:10:19.443Z,15
2017-05-24T03:11:00.100Z,20
2017-05-24T03:11:40.692Z,25
2017-05-24T03:12:21.235Z,20
2017-05-24T03:13:01.784Z,20
2017-05-24T03:13:42.339Z,20
2017-05-24T03:14:22.997Z,25
2017-05-24T03:15:03.540Z,25
2017-05-24T03:15:44.136Z,25
2017-05-24T03:16:24.737Z,20
2017-05-24T03:17:05.288Z,25
2017-05-24T03:17:45.886Z,25
2017-05-24T03:18:26.456Z,20
2017-05-24T03:19:06.996Z,20
2017-05-24T03:19:47.614Z,20
2017-05-24T03:20:28.207Z,20
2017-05-24T03:21:08.790Z,20
2017-05-24T03:21:49.335Z,20
2017-05-24T03:22:29.977Z,20
2017-05-24T03:23:10.468Z,20
2017-05-24T03:23:51.101Z,20
2017-05-24T03:24:31.622Z,20
2017-05-24T03:25:12.230Z,20
2017-05-24T03:25:52.809Z,20
2017-05-24T03:26:34.402Z,20
2017-05-24T03:27:14.988Z,20
2017-05-24T03:27:55.493Z,25
2017-05-24T03:28:36.048Z,25
2017-05-24T03:29:17.613Z,20
2017-05-24T03:29:58.145Z,20
2017-05-24T03:30:38.772Z,20
2017-05-24T03:31:19.367Z,20
2017-05-24T03:31:59.904Z,20
2017-05-24T03:32:40.545Z,25
2017-05-24T03:33:21.125Z,20
2017-05-24T03:34:01.684Z,30
2017-05-24T03:34:42.284Z,25
2017-05-24T03:35:22.869Z,25
2017-05-24T03:36:03.424Z,30
2017-05-24T03:36:43.969Z,25
2017-05-24T03:37:24.531Z,20
2017-05-24T03:38:05.090Z,20
2017-05-24T03:38:45.646Z,25
2017-05-24T03:39:26.192Z,20
2017-05-24T03:40:06.740Z,25
2017-05-24T03:40:47.290Z,20
2017-05-24T03:41:27.835Z,15
2017-05-24T03:42:08.386Z,20
2017-05-24T03:42:48.935Z,20
2017-05-24T03:43:30.501Z,25
2017-05-24T03:44:11.070Z,25
2017-05-24T03:44:51.619Z,20
2017-05-24T03:45:32.152Z,30
2017-05-24T03:46:12.703Z,25
2017-05-24T03:46:53.264Z,20
2017-05-24T03:47:33.851Z,15
2017-05-24T03:48:14.422Z,20
2017-05-24T03:49:01.691Z,30
2017-05-24T03:49:42.294Z,20
2017-05-24T03:50:23.897Z,30
2017-05-24T03:51:04.421Z,20
2017-05-24T03:51:44.978Z,25
2017-05-24T03:52:25.583Z,25
2017-05-24T03:53:06.176Z,20
2017-05-24T03:53:46.704Z,15
2017-05-24T03:54:27.293Z,30
2017-05-24T03:55:07.875Z,25
2017-05-24T03:55:48.426Z,30
2017-05-24T03:56:28.999Z,25
2017-05-24T03:57:09.531Z,25
2017-05-24T03:57:50.078Z,25
2017-05-24T03:58:30.642Z,20
2017-05-24T03:59:11.178Z,20
2017-05-24T03:59:51.780Z,25
2017-05-24T04:00:32.292Z,20
2017-05-24T04:01:12.888Z,20
2017-05-24T04:01:53.486Z,25
2017-05-24T04:02:34.089Z,20
2017-05-24T04:03:14.608Z,20
2017-05-24T04:03:55.202Z,20
2017-05-24T04:04:35.801Z,20
2017-05-24T04:05:16.387Z,20
2017-05-24T04:05:56.903Z,25
2017-05-24T04:06:37.495Z,20
2017-05-24T04:07:18.113Z,30
2017-05-24T04:07:58.693Z,25
2017-05-24T04:08:39.240Z,25
2017-05-24T04:09:19.815Z,25
2017-05-24T04:10:00.390Z,20
2017-05-24T04:10:40.946Z,25
2017-05-24T04:11:21.537Z,25
2017-05-24T04:12:02.235Z,25
2017-05-24T04:12:42.824Z,25
2017-05-24T04:13:23.373Z,20
2017-05-24T04:14:04.023Z,10
2017-05-24T04:14:44.570Z,25
2017-05-24T04:15:25.069Z,15
2017-05-24T04:16:05.617Z,20
2017-05-24T04:16:46.213Z,30
2017-05-24T04:17:26.734Z,15
2017-05-24T04:18:07.383Z,20
2017-05-24T04:18:47.979Z,20
2017-05-24T04:19:28.510Z,10
2017-05-24T04:20:09.131Z,0
2017-05-24T04:20:49.726Z,20
2017-05-24T04:21:30.314Z,20
2017-05-24T04:22:10.830Z,0
2017-05-24T04:22:51.427Z,25
2017-05-24T04:23:32.078Z,20
2017-05-24T04:24:12.618Z,25
2017-05-24T04:24:53.193Z,20
2017-05-24T04:25:33.787Z,20
2017-05-24T04:26:15.367Z,25
2017-05-24T04:26:55.902Z,25
2017-05-24T04:27:36.464Z,20
2017-05-24T04:28:17.038Z,10
2017-05-24T04:28:57.663Z,25
2017-05-24T04:29:38.208Z,20
2017-05-24T04:30:18.774Z,25
2017-05-24T04:30:59.322Z,15
2017-05-24T04:31:39.833Z,30
2017-05-24T04:32:20.416Z,25
2017-05-24T04:33:00.979Z,20
2017-05-24T04:33:41.520Z,25
2017-05-24T04:34:22.071Z,20
2017-05-24T04:35:02.618Z,10
2017-05-24T04:35:43.174Z,25
2017-05-24T04:36:23.857Z,15
2017-05-24T04:37:04.509Z,20
2017-05-24T04:37:45.122Z,25
2017-05-24T04:38:25.675Z,20
2017-05-24T04:39:06.231Z,30
2017-05-24T04:39:46.789Z,25
2017-05-24T04:40:27.368Z,25
2017-05-24T04:41:07.892Z,30
2017-05-24T04:41:48.553Z,25
2017-05-24T04:42:29.092Z,25
2017-05-24T04:43:09.672Z,25
2017-05-24T04:43:50.178Z,20
2017-05-24T04:44:30.706Z,20
2017-05-24T04:45:11.350Z,25
2017-05-24T04:45:51.975Z,25
2017-05-24T04:46:47.475Z,25
2017-05-24T04:47:28.011Z,25
2017-05-24T04:48:13.392Z,30
2017-05-24T04:48:55.013Z,20
2017-05-24T04:49:37.650Z,10
2017-05-24T04:50:19.221Z,25
2017-05-24T04:51:00.790Z,20
2017-05-24T04:51:45.948Z,25
2017-05-24T04:52:26.506Z,25
2017-05-24T04:53:07.052Z,20
2017-05-24T04:53:47.609Z,25
2017-05-24T04:54:28.258Z,25
2017-05-24T04:55:10.859Z,25
2017-05-24T04:55:52.505Z,25
2017-05-24T04:56:37.654Z,20
2017-05-24T04:57:18.311Z,20
2017-05-24T04:57:58.856Z,25
2017-05-24T04:58:39.409Z,25
2017-05-24T04:59:19.944Z,25
2017-05-24T05:00:02.557Z,25
2017-05-24T05:00:43.118Z,25
2017-05-24T05:01:24.739Z,20
2017-05-24T05:02:05.320Z,25
2017-05-24T05:02:45.882Z,25
2017-05-24T05:03:26.488Z,20
2017-05-24T05:04:08.116Z,25
2017-05-24T05:04:48.623Z,20
2017-05-24T05:05:29.198Z,25
2017-05-24T05:06:09.860Z,25
2017-05-24T05:06:50.461Z,10
2017-05-24T05:07:30.993Z,0
2017-05-24T05:08:11.570Z,20
2017-05-24T05:08:52.171Z,10
2017-05-24T05:09:32.857Z,10
2017-05-24T05:10:13.460Z,25
2017-05-24T05:10:54.116Z,30
2017-05-24T05:11:34.731Z,5
2017-05-24T05:12:15.417Z,20
2017-05-24T05:12:56.042Z,25
2017-05-24T05:13:36.704Z,20
2017-05-24T05:14:17.341Z,20
2017-05-24T05:14:58.002Z,20
2017-05-24T05:15:38.596Z,25
2017-05-24T05:16:19.251Z,25
2017-05-24T05:16:59.909Z,20
2017-05-24T05:17:40.558Z,30
2017-05-24T05:18:21.204Z,25
2017-05-24T05:19:01.857Z,25
2017-05-24T05:19:42.514Z,20
2017-05-24T05:20:23.126Z,20
2017-05-24T05:21:03.777Z,25
2017-05-24T05:21:44.367Z,20
2017-05-24T05:22:24.908Z,20
2017-05-24T05:23:05.525Z,30
2017-05-24T05:23:46.126Z,25
2017-05-24T05:24:26.628Z,30
2017-05-24T05:25:07.288Z,25
2017-05-24T05:25:47.884Z,30
2017-05-24T05:26:28.537Z,35
2017-05-24T05:27:09.185Z,35
2017-05-24T05:27:49.840Z,35
2017-05-24T05:28:31.024Z,30
2017-05-24T05:29:11.659Z,5
2017-05-24T05:29:52.332Z,60
2017-05-24T05:30:32.967Z,0
2017-05-24T05:31:13.661Z,0
2017-05-24T05:31:54.191Z,0
2017-05-24T05:32:34.776Z,0
2017-05-24T05:33:15.492Z,0
2017-05-24T05:33:56.070Z,0
2017-05-24T05:34:36.631Z,0
2017-05-24T05:35:17.284Z,0
2017-05-24T05:35:57.881Z,0
2017-05-24T05:36:38.539Z,0
2017-05-24T05:37:19.186Z,0
2017-05-24T05:37:59.844Z,0
2017-05-24T05:38:40.508Z,0
2017-05-24T05:39:21.151Z,0
2017-05-24T05:40:01.842Z,0
2017-05-24T05:40:42.355Z,0
2017-05-24T05:41:22.982Z,0
2017-05-24T05:42:03.551Z,0
2017-05-24T05:42:44.555Z,0
2017-05-24T05:43:25.075Z,0
2017-05-24T05:44:05.717Z,0
2017-05-24T05:44:46.370Z,0
2017-05-24T05:45:27.072Z,0
2017-05-24T05:46:07.726Z,0
2017-05-24T05:46:48.397Z,0
2017-05-24T05:47:29.026Z,0
2017-05-24T05:48:09.675Z,0
2017-05-24T05:48:50.336Z,0
2017-05-24T05:49:30.984Z,0
2017-05-24T05:50:12.658Z,0
2017-05-24T05:50:53.316Z,10
2017-05-24T05:51:33.969Z,10
2017-05-24T05:52:14.621Z,10
2017-05-24T05:52:55.271Z,10
2017-05-24T05:53:36.940Z,10
2017-05-24T05:54:17.622Z,10
2017-05-24T05:54:58.242Z,10
2017-05-24T05:55:38.744Z,10
2017-05-24T05:56:19.411Z,10
2017-05-24T05:57:00.089Z,10
2017-05-24T05:57:40.658Z,10
2017-05-24T05:58:21.171Z,10
2017-05-24T05:59:01.770Z,10
2017-05-24T05:59:42.358Z,10
2017-05-24T06:00:22.874Z,10
2017-05-24T06:01:03.529Z,10
2017-05-24T06:01:44.223Z,10
2017-05-24T06:02:24.731Z,10
2017-05-24T06:03:05.369Z,10
2017-05-24T06:03:45.963Z,10
2017-05-24T06:04:26.491Z,10
2017-05-24T06:05:07.132Z,10
2017-05-24T06:05:47.750Z,10
2017-05-24T06:06:28.309Z,10
2017-05-24T06:07:08.852Z,10
2017-05-24T06:07:49.440Z,10
2017-05-24T06:08:30.027Z,10
2017-05-24T06:09:10.721Z,10
2017-05-24T06:09:51.253Z,10
2017-05-24T06:10:31.846Z,10
2017-05-24T06:11:12.480Z,10
2017-05-24T06:11:54.112Z,10
2017-05-24T06:12:36.840Z,10
2017-05-24T06:13:18.505Z,10
2017-05-24T06:13:59.146Z,10
2017-05-24T06:14:39.793Z,10
2017-05-24T06:15:25.047Z,10
2017-05-24T06:16:10.267Z,10
2017-05-24T06:16:50.809Z,10
2017-05-24T06:17:31.544Z,10
2017-05-24T06:18:18.695Z,10
2017-05-24T06:18:59.234Z,10
2017-05-24T06:19:45.561Z,10
2017-05-24T06:20:26.281Z,10
2017-05-24T06:21:06.960Z,10
2017-05-24T06:21:47.505Z,10
2017-05-24T06:22:40.967Z,10
2017-05-24T06:23:21.681Z,10
2017-05-24T06:24:02.361Z,10
2017-05-24T06:24:42.904Z,10
2017-05-24T06:25:29.531Z,10
2017-05-24T06:26:10.252Z,10
2017-05-24T06:26:56.648Z,10
2017-05-24T06:27:37.193Z,10
2017-05-24T06:28:17.885Z,10
2017-05-24T06:29:05.359Z,10
2017-05-24T06:29:47.053Z,10
2017-05-24T06:30:28.694Z,10
2017-05-24T06:31:11.288Z,10
2017-05-24T06:31:51.936Z,10
2017-05-24T06:32:32.592Z,10
2017-05-24T06:33:14.369Z,10
2017-05-24T06:34:05.773Z,10
2017-05-24T06:34:46.374Z,10
2017-05-24T06:35:27.021Z,10
2017-05-24T06:36:07.744Z,10
2017-05-24T06:36:48.353Z,10
2017-05-24T06:37:28.964Z,10
2017-05-24T06:38:09.635Z,10
2017-05-24T06:38:50.307Z,10
2017-05-24T06:39:30.939Z,10
2017-05-24T06:40:11.585Z,10
2017-05-24T06:40:52.196Z,10
2017-05-24T06:41:32.777Z,10
2017-05-24T06:42:13.430Z,10
2017-05-24T06:42:54.109Z,10
2017-05-24T06:43:34.736Z,10
2017-05-24T06:44:15.288Z,10
2017-05-24T06:44:55.985Z,10
2017-05-24T06:45:36.660Z,10
2017-05-24T06:46:17.298Z,10
2017-05-24T06:46:57.814Z,10
2017-05-24T06:47:38.406Z,10
2017-05-24T06:48:19.051Z,10
2017-05-24T06:50:38.651Z,10
2017-05-24T06:51:19.611Z,10
2017-05-24T06:52:00.592Z,10
2017-05-24T06:52:41.611Z,10
2017-05-24T06:53:22.551Z,10
2017-05-24T06:54:03.494Z,10
2017-05-24T06:54:44.313Z,10
2017-05-24T06:55:25.211Z,10
2017-05-24T06:56:06.131Z,10
2017-05-24T06:56:47.111Z,10
2017-05-24T06:57:28.111Z,10
2017-05-24T06:58:10.551Z,10
2017-05-24T06:58:51.411Z,10
2017-05-24T06:59:32.391Z,10
2017-05-24T07:00:13.391Z,10
2017-05-24T07:00:54.211Z,10
2017-05-24T07:01:35.291Z,10
2017-05-24T07:02:16.231Z,10
2017-05-24T07:02:57.031Z,10
2017-05-24T07:03:38.052Z,10
2017-05-24T07:04:19.031Z,10
2017-05-24T07:04:59.851Z,10
2017-05-24T07:05:40.751Z,10
2017-05-24T07:06:21.679Z,10
2017-05-24T07:07:02.640Z,10
2017-05-24T07:07:43.471Z,10
2017-05-24T07:08:24.453Z,10
2017-05-24T07:09:08.400Z,10
2017-05-24T07:09:50.414Z,10
2017-05-24T07:32:47.516Z,46595
2017-05-24T07:33:28.447Z,46595
2017-05-24T07:34:09.356Z,46595
2017-05-24T07:34:50.296Z,46595
2017-05-24T07:35:31.296Z,46595
2017-05-24T07:36:12.117Z,46595
2017-05-24T07:36:53.076Z,46595
2017-05-24T07:37:33.955Z,46595
2017-05-24T07:38:14.795Z,46595
2017-05-24T07:38:56.096Z,46595
2017-05-24T07:39:37.056Z,46595
2017-05-24T07:40:17.896Z,46595
2017-05-24T07:40:58.896Z,46595
2017-05-24T07:41:40.835Z,46595
2017-05-24T07:42:21.815Z,46595
2017-05-24T07:43:02.796Z,46595
2017-05-24T07:43:43.776Z,46595
2017-05-24T07:44:24.776Z,46595
2017-05-24T07:45:05.716Z,46595
2017-05-24T07:45:46.724Z,46595
2017-05-24T07:46:27.677Z,46595
2017-05-24T07:47:08.675Z,46595
2017-05-24T07:47:49.476Z,46595
2017-05-24T07:48:30.475Z,46595
2017-05-24T07:49:11.436Z,46595
2017-05-24T07:49:52.419Z,46595
2017-05-24T07:50:33.236Z,46595
2017-05-24T07:51:14.157Z,46595
2017-05-24T07:51:55.157Z,46595
2017-05-24T07:52:36.356Z,46595
2017-05-24T07:53:17.356Z,46595
2017-05-24T07:54:01.215Z,46595
2017-05-24T07:54:42.155Z,46595
2017-05-24T07:55:23.136Z,46595
2017-05-24T07:56:04.196Z,46595
2017-05-24T07:56:46.896Z,46595
2017-05-24T07:57:28.495Z,46595
2017-05-24T07:58:09.356Z,46595
2017-05-24T07:58:50.276Z,46595
2017-05-24T07:59:31.395Z,46595
2017-05-24T08:00:12.355Z,46595
2017-05-24T08:00:54.096Z,46595
2017-05-24T08:01:35.075Z,46595
2017-05-24T08:02:16.011Z,46595
2017-05-24T08:02:57.084Z,46595
2017-05-24T08:03:38.075Z,46595
2017-05-24T08:04:19.017Z,46595
2017-05-24T08:04:59.995Z,46595
2017-05-24T08:05:40.895Z,46595
2017-05-24T08:06:21.936Z,46595
2017-05-24T08:07:07.636Z,46595
2017-05-24T08:07:48.615Z,46595
2017-05-24T08:08:36.595Z,46595
2017-05-24T08:09:18.498Z,46595
2017-05-24T08:10:04.076Z,46595
2017-05-24T08:10:46.996Z,46595
2017-05-24T08:11:34.559Z,46595
2017-05-24T08:12:25.996Z,46595
2017-05-24T08:13:06.976Z,46595
2017-05-24T08:50:36.799Z,5
2017-05-24T08:51:17.369Z,5
2017-05-24T08:51:57.874Z,5
2017-05-24T08:52:38.479Z,5
2017-05-24T08:53:19.112Z,5
2017-05-24T08:53:59.776Z,5
2017-05-24T08:54:40.305Z,5
2017-05-24T08:55:20.897Z,5
2017-05-24T08:56:01.496Z,5
2017-05-24T08:56:42.029Z,5
2017-05-24T08:57:22.654Z,5
2017-05-24T08:58:03.241Z,5
2017-05-24T08:58:43.762Z,5
2017-05-24T08:59:24.390Z,5
2017-05-24T09:00:05.003Z,5
2017-05-24T09:00:45.525Z,5
2017-05-24T09:01:26.093Z,5
2017-05-24T09:02:06.707Z,5
2017-05-24T09:02:47.343Z,5
2017-05-24T09:03:27.992Z,5
2017-05-24T09:04:08.556Z,5
2017-05-24T09:04:49.111Z,5
2017-05-24T09:05:29.774Z,5
2017-05-24T09:06:10.353Z,5
2017-05-24T09:06:50.952Z,5
2017-05-24T09:07:31.492Z,5
2017-05-24T09:08:12.089Z,5
2017-05-24T09:08:52.670Z,5
2017-05-24T09:09:33.257Z,5
2017-05-24T09:10:13.786Z,5
2017-05-24T09:10:54.375Z,5
2017-05-24T09:11:35.012Z,5
2017-05-24T09:12:15.615Z,5
2017-05-24T09:12:56.178Z,5
2017-05-24T09:13:36.827Z,5
2017-05-24T09:14:17.485Z,5
2017-05-24T09:14:58.125Z,5
2017-05-24T09:15:38.660Z,5
2017-05-24T09:16:19.288Z,5
2017-05-24T09:16:59.930Z,5
2017-05-24T09:17:40.432Z,5
2017-05-24T09:18:21.068Z,5
2017-05-24T09:19:01.635Z,5
2017-05-24T09:19:42.298Z,5
2017-05-24T09:20:22.891Z,5
2017-05-24T09:21:03.495Z,5
2017-05-24T09:21:44.090Z,5
2017-05-24T09:22:25.154Z,5
2017-05-24T09:23:05.813Z,5
2017-05-24T09:23:46.417Z,5
2017-05-24T09:24:27.011Z,5
2017-05-24T09:25:07.638Z,5
2017-05-24T09:25:48.222Z,5
2017-05-24T09:26:28.894Z,5
2017-05-24T09:27:09.469Z,5
2017-05-24T09:27:50.066Z,5
2017-05-24T09:28:30.593Z,5
2017-05-24T09:29:11.197Z,5
2017-05-24T09:29:51.774Z,5
2017-05-24T09:30:32.273Z,5
2017-05-24T09:31:12.851Z,5
2017-05-24T09:31:53.448Z,5
2017-05-24T09:32:33.975Z,5
2017-05-24T09:33:14.616Z,5
2017-05-24T09:33:55.216Z,5
2017-05-24T09:34:35.757Z,5
2017-05-24T09:35:16.355Z,5
2017-05-24T09:35:57.042Z,5
2017-05-24T09:36:37.635Z,5
2017-05-24T09:37:18.265Z,5
2017-05-24T09:37:58.929Z,5
2017-05-24T09:38:39.566Z,5
2017-05-24T09:39:20.200Z,5
2017-05-24T09:40:00.856Z,5
2017-05-24T09:40:41.430Z,5
2017-05-24T09:41:22.010Z,5
2017-05-24T09:42:02.657Z,5
2017-05-24T09:42:43.274Z,5
2017-05-24T09:43:23.862Z,5
2017-05-24T09:44:04.413Z,5
2017-05-24T09:44:44.959Z,5
2017-05-24T09:45:25.589Z,5
2017-05-24T09:46:06.166Z,5
2017-05-24T09:46:46.768Z,5
2017-05-24T09:47:27.344Z,5
2017-05-24T09:48:08.073Z,5
2017-05-24T12:12:15.395Z,20
2017-05-24T12:12:56.030Z,20
2017-05-24T12:13:36.597Z,20
2017-05-24T12:14:17.229Z,20
2017-05-24T12:14:57.757Z,20
2017-05-24T12:15:38.377Z,20
2017-05-24T12:16:18.988Z,20
2017-05-24T12:16:59.641Z,20
2017-05-24T12:17:40.290Z,20
2017-05-24T12:18:20.939Z,20
2017-05-24T12:19:01.594Z,20
2017-05-24T12:19:42.300Z,20
2017-05-24T12:20:22.895Z,20
2017-05-24T12:21:03.554Z,20
2017-05-24T12:21:44.202Z,20
2017-05-24T12:22:24.853Z,20
2017-05-24T12:23:05.504Z,20
2017-05-24T12:23:46.180Z,20
2017-05-24T12:24:26.827Z,20
2017-05-24T12:25:07.461Z,20
2017-05-24T12:25:48.016Z,20
2017-05-24T12:26:28.590Z,20
2017-05-24T12:27:09.229Z,20
2017-05-24T12:27:49.873Z,20
2017-05-24T12:28:30.416Z,20
2017-05-24T12:29:11.021Z,20
2017-05-24T12:29:51.627Z,20
2017-05-24T12:30:32.143Z,20
2017-05-24T12:31:12.800Z,20
2017-05-24T12:31:53.452Z,20
2017-05-24T12:32:34.091Z,20
2017-05-24T12:33:14.733Z,20
2017-05-24T12:33:55.386Z,20
2017-05-24T12:34:36.018Z,20
2017-05-24T12:35:16.646Z,20
2017-05-24T12:35:57.278Z,20
2017-05-24T12:36:37.945Z,20
2017-05-24T12:37:18.573Z,20
2017-05-24T12:37:59.230Z,20
2017-05-24T12:38:39.878Z,20
2017-05-24T12:39:20.531Z,20
2017-05-24T12:40:01.185Z,20
2017-05-24T12:40:41.829Z,20
2017-05-24T12:41:22.422Z,20
2017-05-24T12:42:03.071Z,20
2017-05-24T12:42:43.728Z,20
2017-05-24T12:43:24.380Z,20
2017-05-24T12:44:05.030Z,20
2017-05-24T12:44:45.690Z,20
2017-05-24T12:45:26.373Z,20
2017-05-24T12:46:06.889Z,20
2017-05-24T12:46:47.503Z,20
2017-05-24T12:47:28.089Z,20
2017-05-24T12:48:08.625Z,20
2017-05-24T12:48:49.264Z,20
2017-05-24T12:49:29.857Z,20
2017-05-24T12:50:10.403Z,20
2017-05-24T12:50:51.004Z,20
2017-05-24T12:51:31.558Z,20
2017-05-24T12:52:12.197Z,20
2017-05-24T12:52:52.729Z,20
2017-05-24T12:53:33.315Z,20
2017-05-24T12:54:13.920Z,20
2017-05-24T12:54:54.607Z,20
2017-05-24T12:55:35.167Z,20
2017-05-24T12:56:15.822Z,20
2017-05-24T12:56:56.413Z,20
2017-05-24T12:57:37.018Z,20
2017-05-24T12:58:17.530Z,20
2017-05-24T12:58:58.130Z,20
2017-05-24T12:59:38.746Z,20
2017-05-24T13:00:19.425Z,20
2017-05-24T13:00:59.947Z,20
2017-05-24T13:01:40.524Z,20
2017-05-24T13:02:21.070Z,20
2017-05-24T13:03:01.678Z,20
2017-05-24T13:03:42.224Z,20
2017-05-24T13:04:22.831Z,20
2017-05-24T13:05:03.539Z,20
2017-05-24T13:05:44.087Z,20
2017-05-24T13:06:24.694Z,20
2017-05-24T13:07:05.288Z,20
2017-05-24T13:07:45.808Z,20
2017-05-24T13:08:26.922Z,20
2017-05-24T13:09:07.511Z,20
2017-05-24T13:09:48.052Z,20
2017-05-24T13:10:28.670Z,20
2017-05-24T13:11:09.254Z,20
2017-05-24T13:11:49.781Z,20
2017-05-24T13:12:30.396Z,20
2017-05-24T13:13:15.715Z,20
2017-05-24T13:14:02.013Z,20
2017-05-24T13:14:49.266Z,20
2017-05-24T13:15:29.784Z,20
2017-05-24T13:16:12.419Z,20
2017-05-24T13:16:53.023Z,20
2017-05-24T13:17:33.612Z,20
2017-05-24T13:18:14.127Z,20
2017-05-24T13:19:06.209Z,20
2017-05-24T13:19:51.509Z,20
2017-05-24T13:20:33.126Z,20
2017-05-24T13:21:13.630Z,20
2017-05-24T14:04:28.664Z,25
2017-05-24T14:05:09.319Z,0
2017-05-24T14:05:50.925Z,0
2017-05-24T14:06:31.605Z,0
2017-05-24T14:07:16.760Z,0
2017-05-24T14:07:58.375Z,0
2017-05-24T14:08:38.966Z,0
2017-05-24T14:09:19.490Z,0
2017-05-24T14:10:02.172Z,0
2017-05-24T14:10:48.459Z,0
2017-05-24T14:11:29.064Z,0
2017-05-24T14:12:15.556Z,0
2017-05-24T14:12:56.209Z,0
2017-05-24T14:13:37.834Z,0
2017-05-24T14:14:20.521Z,0
2017-05-24T14:15:01.156Z,0
2017-05-24T14:15:42.851Z,0